sensor_id;sensor_type;location;lat;lon;timestamp;P1;durP1;ratioP1;P2;durP2;ratioP2
3267;SDS011;1646;52.450;13.326;2022-12-18T00:03:40;48.63;;;16.60;;
3267;SDS011;1646;52.450;13.326;2022-12-18T00:08:39;53.97;;;15.43;;
3267;SDS011;1646;52.450;13.326;2022-12-18T00:13:37;56.00;;;18.17;;
3267;SDS011;1646;52.450;13.326;2022-12-18T00:18:36;56.03;;;16.47;;
3267;SDS011;1646;52.450;13.326;2022-12-18T00:23:37;47.40;;;16.77;;
3267;SDS011;1646;52.450;13.326;2022-12-18T00:28:37;60.60;;;17.90;;
3267;SDS011;1646;52.450;13.326;2022-12-18T00:33:35;51.87;;;16.70;;
3267;SDS011;1646;52.450;13.326;2022-12-18T00:38:39;54.90;;;17.83;;
3267;SDS011;1646;52.450;13.326;2022-12-18T00:43:38;68.33;;;17.80;;
3267;SDS011;1646;52.450;13.326;2022-12-18T00:48:37;80.57;;;17.93;;
3267;SDS011;1646;52.450;13.326;2022-12-18T00:53:35;54.17;;;19.23;;
3267;SDS011;1646;52.450;13.326;2022-12-18T00:58:35;70.63;;;20.10;;
3267;SDS011;1646;52.450;13.326;2022-12-18T01:03:34;64.33;;;16.53;;
3267;SDS011;1646;52.450;13.326;2022-12-18T01:08:32;57.37;;;15.87;;
3267;SDS011;1646;52.450;13.326;2022-12-18T01:13:31;76.87;;;19.27;;
3267;SDS011;1646;52.450;13.326;2022-12-18T01:18:30;55.23;;;16.20;;
3267;SDS011;1646;52.450;13.326;2022-12-18T01:23:28;61.50;;;17.37;;
3267;SDS011;1646;52.450;13.326;2022-12-18T01:28:28;68.70;;;17.50;;
3267;SDS011;1646;52.450;13.326;2022-12-18T01:33:27;55.43;;;16.93;;
3267;SDS011;1646;52.450;13.326;2022-12-18T01:38:26;52.13;;;16.30;;
3267;SDS011;1646;52.450;13.326;2022-12-18T01:43:40;58.53;;;16.30;;
3267;SDS011;1646;52.450;13.326;2022-12-18T01:48:43;61.70;;;19.70;;
3267;SDS011;1646;52.450;13.326;2022-12-18T01:53:43;45.73;;;15.30;;
3267;SDS011;1646;52.450;13.326;2022-12-18T01:58:45;54.23;;;16.97;;
3267;SDS011;1646;52.450;13.326;2022-12-18T02:03:48;49.30;;;14.20;;
3267;SDS011;1646;52.450;13.326;2022-12-18T02:08:50;49.07;;;16.33;;
3267;SDS011;1646;52.450;13.326;2022-12-18T02:14:04;48.57;;;16.07;;
3267;SDS011;1646;52.450;13.326;2022-12-18T02:19:15;57.63;;;17.23;;
3267;SDS011;1646;52.450;13.326;2022-12-18T02:24:29;45.13;;;14.43;;
3267;SDS011;1646;52.450;13.326;2022-12-18T02:29:34;49.20;;;15.77;;
3267;SDS011;1646;52.450;13.326;2022-12-18T02:34:36;43.70;;;14.83;;
3267;SDS011;1646;52.450;13.326;2022-12-18T02:39:42;47.63;;;17.57;;
3267;SDS011;1646;52.450;13.326;2022-12-18T02:44:45;61.60;;;17.30;;
3267;SDS011;1646;52.450;13.326;2022-12-18T02:49:49;64.93;;;18.33;;
3267;SDS011;1646;52.450;13.326;2022-12-18T02:55:00;54.03;;;17.27;;
3267;SDS011;1646;52.450;13.326;2022-12-18T03:00:16;63.53;;;18.20;;
3267;SDS011;1646;52.450;13.326;2022-12-18T03:05:17;54.73;;;16.43;;
3267;SDS011;1646;52.450;13.326;2022-12-18T03:10:19;57.03;;;16.93;;
3267;SDS011;1646;52.450;13.326;2022-12-18T03:15:24;61.93;;;16.27;;
3267;SDS011;1646;52.450;13.326;2022-12-18T03:20:32;71.00;;;16.03;;
3267;SDS011;1646;52.450;13.326;2022-12-18T03:25:32;60.50;;;17.10;;
3267;SDS011;1646;52.450;13.326;2022-12-18T03:30:33;55.10;;;16.60;;
3267;SDS011;1646;52.450;13.326;2022-12-18T03:35:36;52.33;;;15.97;;
3267;SDS011;1646;52.450;13.326;2022-12-18T03:40:41;53.87;;;15.37;;
3267;SDS011;1646;52.450;13.326;2022-12-18T03:45:48;63.90;;;17.17;;
3267;SDS011;1646;52.450;13.326;2022-12-18T03:50:53;57.60;;;18.10;;
3267;SDS011;1646;52.450;13.326;2022-12-18T03:55:56;62.63;;;18.00;;
3267;SDS011;1646;52.450;13.326;2022-12-18T04:01:05;83.87;;;21.07;;
3267;SDS011;1646;52.450;13.326;2022-12-18T04:06:06;64.80;;;19.13;;
3267;SDS011;1646;52.450;13.326;2022-12-18T04:11:08;69.73;;;18.10;;
3267;SDS011;1646;52.450;13.326;2022-12-18T04:16:09;68.73;;;17.90;;
3267;SDS011;1646;52.450;13.326;2022-12-18T04:21:10;64.13;;;19.47;;
3267;SDS011;1646;52.450;13.326;2022-12-18T04:26:09;68.03;;;20.37;;
3267;SDS011;1646;52.450;13.326;2022-12-18T04:31:28;72.03;;;20.47;;
3267;SDS011;1646;52.450;13.326;2022-12-18T04:36:28;88.10;;;24.23;;
3267;SDS011;1646;52.450;13.326;2022-12-18T04:41:26;71.73;;;19.90;;
3267;SDS011;1646;52.450;13.326;2022-12-18T04:46:25;94.07;;;26.00;;
3267;SDS011;1646;52.450;13.326;2022-12-18T04:51:24;94.30;;;23.87;;
3267;SDS011;1646;52.450;13.326;2022-12-18T04:56:22;83.37;;;26.27;;
3267;SDS011;1646;52.450;13.326;2022-12-18T05:01:20;109.73;;;25.30;;
3267;SDS011;1646;52.450;13.326;2022-12-18T05:06:18;88.00;;;23.70;;
3267;SDS011;1646;52.450;13.326;2022-12-18T05:11:18;100.90;;;25.43;;
3267;SDS011;1646;52.450;13.326;2022-12-18T05:16:16;89.33;;;25.53;;
3267;SDS011;1646;52.450;13.326;2022-12-18T05:21:14;77.10;;;23.53;;
3267;SDS011;1646;52.450;13.326;2022-12-18T05:26:14;67.97;;;18.17;;
3267;SDS011;1646;52.450;13.326;2022-12-18T05:31:15;86.63;;;23.90;;
3267;SDS011;1646;52.450;13.326;2022-12-18T05:36:13;82.77;;;23.53;;
3267;SDS011;1646;52.450;13.326;2022-12-18T05:41:12;98.60;;;25.47;;
3267;SDS011;1646;52.450;13.326;2022-12-18T05:46:11;66.70;;;19.83;;
3267;SDS011;1646;52.450;13.326;2022-12-18T05:51:13;66.13;;;19.27;;
3267;SDS011;1646;52.450;13.326;2022-12-18T05:56:13;76.67;;;21.10;;
3267;SDS011;1646;52.450;13.326;2022-12-18T06:01:13;64.60;;;19.73;;
3267;SDS011;1646;52.450;13.326;2022-12-18T06:06:14;67.87;;;21.33;;
3267;SDS011;1646;52.450;13.326;2022-12-18T06:11:15;83.47;;;23.80;;
3267;SDS011;1646;52.450;13.326;2022-12-18T06:16:15;58.17;;;19.83;;
3267;SDS011;1646;52.450;13.326;2022-12-18T06:21:14;77.57;;;21.20;;
3267;SDS011;1646;52.450;13.326;2022-12-18T06:26:13;75.10;;;19.73;;
3267;SDS011;1646;52.450;13.326;2022-12-18T06:31:11;66.53;;;21.60;;
3267;SDS011;1646;52.450;13.326;2022-12-18T06:36:10;57.83;;;19.03;;
3267;SDS011;1646;52.450;13.326;2022-12-18T06:41:11;64.10;;;19.47;;
3267;SDS011;1646;52.450;13.326;2022-12-18T06:46:11;72.70;;;20.70;;
3267;SDS011;1646;52.450;13.326;2022-12-18T06:51:09;79.17;;;22.30;;
3267;SDS011;1646;52.450;13.326;2022-12-18T06:56:07;87.17;;;26.00;;
3267;SDS011;1646;52.450;13.326;2022-12-18T07:01:08;63.63;;;19.97;;
3267;SDS011;1646;52.450;13.326;2022-12-18T07:06:12;88.53;;;24.20;;
3267;SDS011;1646;52.450;13.326;2022-12-18T07:11:12;103.93;;;24.33;;
3267;SDS011;1646;52.450;13.326;2022-12-18T07:16:13;90.33;;;24.53;;
3267;SDS011;1646;52.450;13.326;2022-12-18T07:21:20;87.27;;;24.53;;
3267;SDS011;1646;52.450;13.326;2022-12-18T07:26:19;77.23;;;21.30;;
3267;SDS011;1646;52.450;13.326;2022-12-18T07:31:20;69.10;;;23.37;;
3267;SDS011;1646;52.450;13.326;2022-12-18T07:36:19;71.33;;;22.77;;
3267;SDS011;1646;52.450;13.326;2022-12-18T07:41:20;73.13;;;22.07;;
3267;SDS011;1646;52.450;13.326;2022-12-18T07:46:18;55.57;;;16.87;;
3267;SDS011;1646;52.450;13.326;2022-12-18T07:51:18;57.93;;;18.50;;
3267;SDS011;1646;52.450;13.326;2022-12-18T07:56:16;62.57;;;18.20;;
3267;SDS011;1646;52.450;13.326;2022-12-18T08:01:23;59.10;;;18.80;;
3267;SDS011;1646;52.450;13.326;2022-12-18T08:06:23;64.37;;;18.90;;
3267;SDS011;1646;52.450;13.326;2022-12-18T08:11:21;57.63;;;17.30;;
3267;SDS011;1646;52.450;13.326;2022-12-18T08:16:21;56.47;;;19.40;;
3267;SDS011;1646;52.450;13.326;2022-12-18T08:21:20;65.73;;;17.63;;
3267;SDS011;1646;52.450;13.326;2022-12-18T08:26:22;54.47;;;18.50;;
3267;SDS011;1646;52.450;13.326;2022-12-18T08:31:23;68.53;;;20.77;;
3267;SDS011;1646;52.450;13.326;2022-12-18T08:36:22;81.20;;;21.37;;
3267;SDS011;1646;52.450;13.326;2022-12-18T08:41:22;76.80;;;19.67;;
3267;SDS011;1646;52.450;13.326;2022-12-18T08:46:21;53.50;;;17.97;;
3267;SDS011;1646;52.450;13.326;2022-12-18T08:51:22;69.60;;;18.60;;
3267;SDS011;1646;52.450;13.326;2022-12-18T08:56:20;61.03;;;19.47;;
3267;SDS011;1646;52.450;13.326;2022-12-18T09:01:18;66.67;;;19.57;;
3267;SDS011;1646;52.450;13.326;2022-12-18T09:06:17;62.03;;;18.50;;
3267;SDS011;1646;52.450;13.326;2022-12-18T09:11:20;51.57;;;17.47;;
3267;SDS011;1646;52.450;13.326;2022-12-18T09:16:21;60.90;;;19.10;;
3267;SDS011;1646;52.450;13.326;2022-12-18T09:21:28;73.77;;;19.67;;
3267;SDS011;1646;52.450;13.326;2022-12-18T09:26:31;55.13;;;17.90;;
3267;SDS011;1646;52.450;13.326;2022-12-18T09:31:30;64.50;;;19.90;;
3267;SDS011;1646;52.450;13.326;2022-12-18T09:36:28;54.17;;;20.03;;
3267;SDS011;1646;52.450;13.326;2022-12-18T09:41:32;68.53;;;18.90;;
3267;SDS011;1646;52.450;13.326;2022-12-18T09:46:44;64.93;;;19.90;;
3267;SDS011;1646;52.450;13.326;2022-12-18T09:51:46;53.73;;;16.10;;
3267;SDS011;1646;52.450;13.326;2022-12-18T09:56:49;53.53;;;16.10;;
3267;SDS011;1646;52.450;13.326;2022-12-18T10:01:47;46.43;;;15.60;;
3267;SDS011;1646;52.450;13.326;2022-12-18T10:06:46;63.00;;;18.63;;
3267;SDS011;1646;52.450;13.326;2022-12-18T10:11:53;51.47;;;17.93;;
3267;SDS011;1646;52.450;13.326;2022-12-18T10:16:59;51.63;;;15.77;;
3267;SDS011;1646;52.450;13.326;2022-12-18T10:22:11;50.97;;;15.43;;
3267;SDS011;1646;52.450;13.326;2022-12-18T10:27:23;42.47;;;15.50;;
3267;SDS011;1646;52.450;13.326;2022-12-18T10:32:23;50.73;;;13.80;;
3267;SDS011;1646;52.450;13.326;2022-12-18T10:37:24;53.43;;;18.17;;
3267;SDS011;1646;52.450;13.326;2022-12-18T10:42:25;55.93;;;19.00;;
3267;SDS011;1646;52.450;13.326;2022-12-18T10:47:23;40.87;;;16.23;;
3267;SDS011;1646;52.450;13.326;2022-12-18T10:52:21;46.03;;;15.70;;
3267;SDS011;1646;52.450;13.326;2022-12-18T10:57:31;51.77;;;16.70;;
3267;SDS011;1646;52.450;13.326;2022-12-18T11:02:33;46.60;;;15.73;;
3267;SDS011;1646;52.450;13.326;2022-12-18T11:07:46;52.97;;;18.40;;
3267;SDS011;1646;52.450;13.326;2022-12-18T11:12:47;56.00;;;17.90;;
3267;SDS011;1646;52.450;13.326;2022-12-18T11:17:46;58.17;;;18.77;;
3267;SDS011;1646;52.450;13.326;2022-12-18T11:22:53;49.33;;;17.10;;
3267;SDS011;1646;52.450;13.326;2022-12-18T11:27:56;56.93;;;17.37;;
3267;SDS011;1646;52.450;13.326;2022-12-18T11:32:56;52.43;;;19.13;;
3267;SDS011;1646;52.450;13.326;2022-12-18T11:38:01;54.70;;;17.40;;
3267;SDS011;1646;52.450;13.326;2022-12-18T11:43:06;49.00;;;16.93;;
3267;SDS011;1646;52.450;13.326;2022-12-18T11:48:12;51.20;;;16.70;;
3267;SDS011;1646;52.450;13.326;2022-12-18T11:53:14;47.67;;;15.27;;
3267;SDS011;1646;52.450;13.326;2022-12-18T11:58:14;50.27;;;17.33;;
3267;SDS011;1646;52.450;13.326;2022-12-18T12:09:14;47.83;;;17.37;;
3267;SDS011;1646;52.450;13.326;2022-12-18T12:14:24;45.13;;;15.50;;
3267;SDS011;1646;52.450;13.326;2022-12-18T12:19:36;53.50;;;18.30;;
3267;SDS011;1646;52.450;13.326;2022-12-18T12:24:47;53.77;;;17.97;;
3267;SDS011;1646;52.450;13.326;2022-12-18T12:29:55;61.53;;;20.80;;
3267;SDS011;1646;52.450;13.326;2022-12-18T12:35:03;54.37;;;19.60;;
3267;SDS011;1646;52.450;13.326;2022-12-18T12:40:11;55.50;;;18.10;;
3267;SDS011;1646;52.450;13.326;2022-12-18T12:45:35;60.03;;;21.47;;
3267;SDS011;1646;52.450;13.326;2022-12-18T12:50:39;47.07;;;16.83;;
3267;SDS011;1646;52.450;13.326;2022-12-18T12:55:38;40.77;;;15.10;;
3267;SDS011;1646;52.450;13.326;2022-12-18T13:00:39;35.80;;;13.10;;
3267;SDS011;1646;52.450;13.326;2022-12-18T13:05:45;38.13;;;14.60;;
3267;SDS011;1646;52.450;13.326;2022-12-18T13:10:46;38.97;;;15.80;;
3267;SDS011;1646;52.450;13.326;2022-12-18T13:15:47;40.60;;;14.97;;
3267;SDS011;1646;52.450;13.326;2022-12-18T13:20:47;37.87;;;14.90;;
3267;SDS011;1646;52.450;13.326;2022-12-18T13:25:55;42.20;;;15.93;;
3267;SDS011;1646;52.450;13.326;2022-12-18T13:30:56;44.30;;;16.40;;
3267;SDS011;1646;52.450;13.326;2022-12-18T13:36:00;34.00;;;15.47;;
3267;SDS011;1646;52.450;13.326;2022-12-18T13:41:21;32.23;;;13.80;;
3267;SDS011;1646;52.450;13.326;2022-12-18T13:46:23;40.60;;;16.47;;
3267;SDS011;1646;52.450;13.326;2022-12-18T13:51:24;44.50;;;17.77;;
3267;SDS011;1646;52.450;13.326;2022-12-18T13:56:25;59.17;;;18.27;;
3267;SDS011;1646;52.450;13.326;2022-12-18T14:01:26;41.40;;;17.47;;
3267;SDS011;1646;52.450;13.326;2022-12-18T14:06:24;50.93;;;19.97;;
3267;SDS011;1646;52.450;13.326;2022-12-18T14:11:23;54.27;;;19.80;;
3267;SDS011;1646;52.450;13.326;2022-12-18T14:16:22;63.70;;;21.63;;
3267;SDS011;1646;52.450;13.326;2022-12-18T14:21:23;59.80;;;20.83;;
3267;SDS011;1646;52.450;13.326;2022-12-18T14:26:24;67.27;;;23.80;;
3267;SDS011;1646;52.450;13.326;2022-12-18T14:31:27;64.60;;;22.73;;
3267;SDS011;1646;52.450;13.326;2022-12-18T14:36:27;82.67;;;28.30;;
3267;SDS011;1646;52.450;13.326;2022-12-18T14:41:26;73.10;;;24.50;;
3267;SDS011;1646;52.450;13.326;2022-12-18T14:46:25;64.57;;;23.63;;
3267;SDS011;1646;52.450;13.326;2022-12-18T14:51:33;66.93;;;24.20;;
3267;SDS011;1646;52.450;13.326;2022-12-18T14:56:32;45.47;;;17.93;;
3267;SDS011;1646;52.450;13.326;2022-12-18T15:01:31;54.20;;;19.67;;
3267;SDS011;1646;52.450;13.326;2022-12-18T15:06:34;54.57;;;19.70;;
3267;SDS011;1646;52.450;13.326;2022-12-18T15:11:35;55.03;;;20.13;;
3267;SDS011;1646;52.450;13.326;2022-12-18T15:16:41;43.23;;;17.77;;
3267;SDS011;1646;52.450;13.326;2022-12-18T15:21:43;43.70;;;17.83;;
3267;SDS011;1646;52.450;13.326;2022-12-18T15:26:41;48.43;;;18.63;;
3267;SDS011;1646;52.450;13.326;2022-12-18T15:31:39;38.87;;;17.43;;
3267;SDS011;1646;52.450;13.326;2022-12-18T15:36:37;47.37;;;17.10;;
3267;SDS011;1646;52.450;13.326;2022-12-18T15:41:37;46.20;;;19.57;;
3267;SDS011;1646;52.450;13.326;2022-12-18T15:46:35;44.57;;;16.60;;
3267;SDS011;1646;52.450;13.326;2022-12-18T15:51:35;40.07;;;18.67;;
3267;SDS011;1646;52.450;13.326;2022-12-18T15:56:34;43.17;;;17.87;;
3267;SDS011;1646;52.450;13.326;2022-12-18T16:01:52;45.97;;;18.13;;
3267;SDS011;1646;52.450;13.326;2022-12-18T16:06:50;34.73;;;15.13;;
3267;SDS011;1646;52.450;13.326;2022-12-18T16:12:14;39.47;;;16.23;;
3267;SDS011;1646;52.450;13.326;2022-12-18T16:17:14;36.53;;;18.03;;
3267;SDS011;1646;52.450;13.326;2022-12-18T16:22:15;43.47;;;17.00;;
3267;SDS011;1646;52.450;13.326;2022-12-18T16:27:19;45.23;;;18.97;;
3267;SDS011;1646;52.450;13.326;2022-12-18T16:32:18;36.40;;;14.90;;
3267;SDS011;1646;52.450;13.326;2022-12-18T16:37:17;37.40;;;15.87;;
3267;SDS011;1646;52.450;13.326;2022-12-18T16:42:16;39.37;;;16.90;;
3267;SDS011;1646;52.450;13.326;2022-12-18T16:47:16;34.00;;;16.53;;
3267;SDS011;1646;52.450;13.326;2022-12-18T16:52:15;42.47;;;17.20;;
3267;SDS011;1646;52.450;13.326;2022-12-18T16:57:14;42.00;;;15.37;;
3267;SDS011;1646;52.450;13.326;2022-12-18T17:02:18;34.83;;;14.70;;
3267;SDS011;1646;52.450;13.326;2022-12-18T17:07:19;41.20;;;16.63;;
3267;SDS011;1646;52.450;13.326;2022-12-18T17:12:17;42.10;;;17.77;;
3267;SDS011;1646;52.450;13.326;2022-12-18T17:17:18;44.27;;;17.57;;
3267;SDS011;1646;52.450;13.326;2022-12-18T17:22:19;40.27;;;16.30;;
3267;SDS011;1646;52.450;13.326;2022-12-18T17:27:18;34.60;;;15.70;;
3267;SDS011;1646;52.450;13.326;2022-12-18T17:32:17;42.03;;;17.47;;
3267;SDS011;1646;52.450;13.326;2022-12-18T17:37:16;43.27;;;17.80;;
3267;SDS011;1646;52.450;13.326;2022-12-18T17:42:14;51.10;;;19.53;;
3267;SDS011;1646;52.450;13.326;2022-12-18T17:47:12;46.00;;;18.20;;
3267;SDS011;1646;52.450;13.326;2022-12-18T17:52:12;42.23;;;19.50;;
3267;SDS011;1646;52.450;13.326;2022-12-18T17:57:10;44.07;;;19.57;;
3267;SDS011;1646;52.450;13.326;2022-12-18T18:02:08;43.43;;;19.67;;
3267;SDS011;1646;52.450;13.326;2022-12-18T18:07:08;53.30;;;19.57;;
3267;SDS011;1646;52.450;13.326;2022-12-18T18:12:07;57.00;;;19.87;;
3267;SDS011;1646;52.450;13.326;2022-12-18T18:17:23;46.70;;;19.50;;
3267;SDS011;1646;52.450;13.326;2022-12-18T18:22:21;52.10;;;18.70;;
3267;SDS011;1646;52.450;13.326;2022-12-18T18:27:21;48.43;;;18.83;;
3267;SDS011;1646;52.450;13.326;2022-12-18T18:32:19;47.63;;;19.40;;
3267;SDS011;1646;52.450;13.326;2022-12-18T18:37:17;45.77;;;19.20;;
3267;SDS011;1646;52.450;13.326;2022-12-18T18:42:15;48.00;;;18.23;;
3267;SDS011;1646;52.450;13.326;2022-12-18T18:47:17;50.33;;;18.77;;
3267;SDS011;1646;52.450;13.326;2022-12-18T18:52:16;52.70;;;18.53;;
3267;SDS011;1646;52.450;13.326;2022-12-18T18:57:14;52.53;;;21.87;;
3267;SDS011;1646;52.450;13.326;2022-12-18T19:02:18;58.00;;;19.90;;
3267;SDS011;1646;52.450;13.326;2022-12-18T19:07:17;52.40;;;21.37;;
3267;SDS011;1646;52.450;13.326;2022-12-18T19:12:26;52.20;;;20.63;;
3267;SDS011;1646;52.450;13.326;2022-12-18T19:17:43;53.57;;;20.00;;
3267;SDS011;1646;52.450;13.326;2022-12-18T19:22:42;52.60;;;21.70;;
3267;SDS011;1646;52.450;13.326;2022-12-18T19:27:51;59.77;;;22.00;;
3267;SDS011;1646;52.450;13.326;2022-12-18T19:32:50;49.53;;;20.33;;
3267;SDS011;1646;52.450;13.326;2022-12-18T19:37:48;47.67;;;18.63;;
3267;SDS011;1646;52.450;13.326;2022-12-18T19:42:46;50.60;;;19.60;;
3267;SDS011;1646;52.450;13.326;2022-12-18T19:47:44;55.93;;;21.37;;
3267;SDS011;1646;52.450;13.326;2022-12-18T19:52:44;55.70;;;19.57;;
3267;SDS011;1646;52.450;13.326;2022-12-18T19:57:42;56.83;;;22.90;;
3267;SDS011;1646;52.450;13.326;2022-12-18T20:02:40;46.40;;;19.10;;
3267;SDS011;1646;52.450;13.326;2022-12-18T20:07:39;49.60;;;20.90;;
3267;SDS011;1646;52.450;13.326;2022-12-18T20:12:40;49.27;;;19.13;;
3267;SDS011;1646;52.450;13.326;2022-12-18T20:17:38;50.37;;;19.30;;
3267;SDS011;1646;52.450;13.326;2022-12-18T20:22:37;44.63;;;16.80;;
3267;SDS011;1646;52.450;13.326;2022-12-18T20:27:35;51.60;;;19.33;;
3267;SDS011;1646;52.450;13.326;2022-12-18T20:32:34;57.27;;;18.57;;
3267;SDS011;1646;52.450;13.326;2022-12-18T20:37:33;53.13;;;19.93;;
3267;SDS011;1646;52.450;13.326;2022-12-18T20:42:34;48.00;;;19.03;;
3267;SDS011;1646;52.450;13.326;2022-12-18T20:47:32;52.20;;;19.10;;
3267;SDS011;1646;52.450;13.326;2022-12-18T20:52:32;56.47;;;19.37;;
3267;SDS011;1646;52.450;13.326;2022-12-18T20:57:30;46.70;;;18.47;;
3267;SDS011;1646;52.450;13.326;2022-12-18T21:02:29;46.37;;;17.20;;
3267;SDS011;1646;52.450;13.326;2022-12-18T21:07:29;60.10;;;19.17;;
3267;SDS011;1646;52.450;13.326;2022-12-18T21:12:27;49.73;;;19.20;;
3267;SDS011;1646;52.450;13.326;2022-12-18T21:17:43;45.17;;;18.17;;
3267;SDS011;1646;52.450;13.326;2022-12-18T21:22:43;55.27;;;20.07;;
3267;SDS011;1646;52.450;13.326;2022-12-18T21:27:42;53.27;;;17.83;;
3267;SDS011;1646;52.450;13.326;2022-12-18T21:32:40;47.90;;;17.63;;
3267;SDS011;1646;52.450;13.326;2022-12-18T21:37:38;53.30;;;19.17;;
3267;SDS011;1646;52.450;13.326;2022-12-18T21:42:38;51.00;;;18.70;;
3267;SDS011;1646;52.450;13.326;2022-12-18T21:47:53;52.33;;;17.63;;
3267;SDS011;1646;52.450;13.326;2022-12-18T21:52:51;50.60;;;17.67;;
3267;SDS011;1646;52.450;13.326;2022-12-18T21:57:50;61.73;;;21.17;;
3267;SDS011;1646;52.450;13.326;2022-12-18T22:02:50;46.03;;;17.77;;
3267;SDS011;1646;52.450;13.326;2022-12-18T22:08:09;48.20;;;19.83;;
3267;SDS011;1646;52.450;13.326;2022-12-18T22:13:09;53.77;;;19.37;;
3267;SDS011;1646;52.450;13.326;2022-12-18T22:18:07;49.10;;;17.77;;
3267;SDS011;1646;52.450;13.326;2022-12-18T22:23:05;59.97;;;19.77;;
3267;SDS011;1646;52.450;13.326;2022-12-18T22:28:04;51.20;;;19.93;;
3267;SDS011;1646;52.450;13.326;2022-12-18T22:33:21;45.27;;;19.10;;
3267;SDS011;1646;52.450;13.326;2022-12-18T22:38:19;49.07;;;19.90;;
3267;SDS011;1646;52.450;13.326;2022-12-18T22:43:17;51.67;;;19.77;;
3267;SDS011;1646;52.450;13.326;2022-12-18T22:48:15;55.00;;;20.33;;
3267;SDS011;1646;52.450;13.326;2022-12-18T22:53:15;42.77;;;16.50;;
3267;SDS011;1646;52.450;13.326;2022-12-18T22:58:13;49.60;;;18.70;;
3267;SDS011;1646;52.450;13.326;2022-12-18T23:03:11;47.83;;;17.40;;
3267;SDS011;1646;52.450;13.326;2022-12-18T23:08:09;49.80;;;18.77;;
3267;SDS011;1646;52.450;13.326;2022-12-18T23:13:09;53.50;;;16.87;;
3267;SDS011;1646;52.450;13.326;2022-12-18T23:18:07;44.00;;;17.80;;
3267;SDS011;1646;52.450;13.326;2022-12-18T23:23:05;43.23;;;15.90;;
3267;SDS011;1646;52.450;13.326;2022-12-18T23:28:03;46.83;;;17.20;;
3267;SDS011;1646;52.450;13.326;2022-12-18T23:33:03;49.63;;;19.07;;
3267;SDS011;1646;52.450;13.326;2022-12-18T23:38:01;43.10;;;16.57;;
3267;SDS011;1646;52.450;13.326;2022-12-18T23:42:59;44.57;;;16.30;;
3267;SDS011;1646;52.450;13.326;2022-12-18T23:47:57;41.37;;;14.73;;
3267;SDS011;1646;52.450;13.326;2022-12-18T23:52:57;41.07;;;15.03;;
3267;SDS011;1646;52.450;13.326;2022-12-18T23:58:01;43.73;;;16.30;;
